To NAV CANADA Home Page Login to a new session Search on AWWS site Feedback and Comments Disclaimer Vers la page française équivalente Tips FAQ What's new on the site To the Forecasts and Observations / NOTAM section To "File a Flight Plan" website Publications and other links Update of the User's profile FIC Telephone Numbers My Weather Data Folder Route Weather Data Regional Weather Data Local Weather Data To the Forecasts and Observations / NOTAM section
Request Generated 02/24/2017 at 03:37:16 UTC . Weather information available at that time is displayed.

METAR/TAF

WINNIPEG/JAMES ARMSTRONG RICHARDSON INTL/MB    

METAR CYWG 240300Z 06005KT 15SM SKC M10/M13 A3016 RMK SLP232=
METAR CYWG 240200Z 05005KT 15SM SKC M09/M12 A3016 RMK SLP232=
METAR CYWG 240100Z 04005KT 15SM SKC M08/M12 A3015 RMK SLP230=

TAF AMD CYWG 240120Z 2401/2424 03006KT P6SM FEW040
FM240400 03006KT P6SM BKN040 TEMPO 2404/2414 4SM -SN
BECMG 2409/2411 34008KT
FM241800 34008KT P6SM SCT030
RMK NXT FCST BY 240600Z=
Your time UTC time
Weather data provided by Environment Canada and NAV CANADA